sensor_id;sensor_type;location;lat;lon;timestamp;temperature;humidity
12752;DHT22;6440;44.616;2.032;2022-09-04T00:00:05;17.60;99.90
12752;DHT22;6440;44.616;2.032;2022-09-04T00:03:05;17.50;99.90
12752;DHT22;6440;44.616;2.032;2022-09-04T00:05:54;17.60;99.90
12752;DHT22;6440;44.616;2.032;2022-09-04T00:08:55;17.60;99.90
12752;DHT22;6440;44.616;2.032;2022-09-04T00:11:39;17.60;99.90
12752;DHT22;6440;44.616;2.032;2022-09-04T00:14:09;17.60;99.90
12752;DHT22;6440;44.616;2.032;2022-09-04T00:16:43;17.60;99.90
12752;DHT22;6440;44.616;2.032;2022-09-04T00:19:12;17.60;99.90
12752;DHT22;6440;44.616;2.032;2022-09-04T00:21:44;17.60;99.90
12752;DHT22;6440;44.616;2.032;2022-09-04T00:24:24;17.60;99.90
12752;DHT22;6440;44.616;2.032;2022-09-04T00:27:06;17.50;99.90
12752;DHT22;6440;44.616;2.032;2022-09-04T00:29:43;17.50;99.90
12752;DHT22;6440;44.616;2.032;2022-09-04T00:32:33;17.50;99.90
12752;DHT22;6440;44.616;2.032;2022-09-04T00:35:10;17.60;99.90
12752;DHT22;6440;44.616;2.032;2022-09-04T00:37:44;17.50;99.90
12752;DHT22;6440;44.616;2.032;2022-09-04T00:58:02;17.40;99.90
12752;DHT22;6440;44.616;2.032;2022-09-04T01:00:27;17.30;99.90
12752;DHT22;6440;44.616;2.032;2022-09-04T01:03:18;17.30;99.90
12752;DHT22;6440;44.616;2.032;2022-09-04T01:08:48;17.30;99.90
12752;DHT22;6440;44.616;2.032;2022-09-04T01:11:49;17.30;99.90
12752;DHT22;6440;44.616;2.032;2022-09-04T01:14:20;17.20;99.90
12752;DHT22;6440;44.616;2.032;2022-09-04T01:16:50;17.20;99.90
12752;DHT22;6440;44.616;2.032;2022-09-04T01:20:25;17.20;99.90
12752;DHT22;6440;44.616;2.032;2022-09-04T01:22:46;17.20;99.90
12752;DHT22;6440;44.616;2.032;2022-09-04T01:25:25;17.20;99.90
12752;DHT22;6440;44.616;2.032;2022-09-04T01:28:04;17.20;99.90
12752;DHT22;6440;44.616;2.032;2022-09-04T01:30:39;17.20;99.90
12752;DHT22;6440;44.616;2.032;2022-09-04T01:33:28;17.10;99.90
12752;DHT22;6440;44.616;2.032;2022-09-04T01:36:03;17.10;99.90
12752;DHT22;6440;44.616;2.032;2022-09-04T01:38:48;17.10;99.90
12752;DHT22;6440;44.616;2.032;2022-09-04T01:41:31;17.00;99.90
12752;DHT22;6440;44.616;2.032;2022-09-04T01:44:02;17.00;99.90
12752;DHT22;6440;44.616;2.032;2022-09-04T01:46:38;17.00;99.90
12752;DHT22;6440;44.616;2.032;2022-09-04T01:49:19;17.00;99.90
12752;DHT22;6440;44.616;2.032;2022-09-04T01:52:15;16.90;99.90
12752;DHT22;6440;44.616;2.032;2022-09-04T01:54:48;16.90;99.90
12752;DHT22;6440;44.616;2.032;2022-09-04T02:00:10;16.90;99.90
12752;DHT22;6440;44.616;2.032;2022-09-04T02:03:03;16.90;99.90
12752;DHT22;6440;44.616;2.032;2022-09-04T02:05:58;16.90;99.90
12752;DHT22;6440;44.616;2.032;2022-09-04T02:08:45;16.90;99.90
12752;DHT22;6440;44.616;2.032;2022-09-04T02:11:15;16.90;99.90
12752;DHT22;6440;44.616;2.032;2022-09-04T02:14:21;16.90;99.90
12752;DHT22;6440;44.616;2.032;2022-09-04T02:16:44;16.90;99.90
12752;DHT22;6440;44.616;2.032;2022-09-04T02:19:35;16.90;99.90
12752;DHT22;6440;44.616;2.032;2022-09-04T02:23:32;16.80;99.90
12752;DHT22;6440;44.616;2.032;2022-09-04T02:25:40;16.80;99.90
12752;DHT22;6440;44.616;2.032;2022-09-04T02:28:21;16.80;99.90
12752;DHT22;6440;44.616;2.032;2022-09-04T02:31:00;16.70;99.90
12752;DHT22;6440;44.616;2.032;2022-09-04T02:33:28;16.70;99.90
12752;DHT22;6440;44.616;2.032;2022-09-04T02:36:25;16.70;99.90
12752;DHT22;6440;44.616;2.032;2022-09-04T02:39:42;16.70;99.90
12752;DHT22;6440;44.616;2.032;2022-09-04T02:42:30;16.70;99.90
12752;DHT22;6440;44.616;2.032;2022-09-04T02:45:18;16.60;99.90
12752;DHT22;6440;44.616;2.032;2022-09-04T02:47:52;16.60;99.90
12752;DHT22;6440;44.616;2.032;2022-09-04T02:50:43;16.60;99.90
12752;DHT22;6440;44.616;2.032;2022-09-04T02:53:09;16.60;99.90
12752;DHT22;6440;44.616;2.032;2022-09-04T02:56:05;16.60;99.90
12752;DHT22;6440;44.616;2.032;2022-09-04T03:01:51;16.50;99.90
12752;DHT22;6440;44.616;2.032;2022-09-04T03:05:30;16.50;99.90
12752;DHT22;6440;44.616;2.032;2022-09-04T03:07:09;16.50;99.90
12752;DHT22;6440;44.616;2.032;2022-09-04T03:12:39;16.40;99.90
12752;DHT22;6440;44.616;2.032;2022-09-04T03:15:26;16.40;99.90
12752;DHT22;6440;44.616;2.032;2022-09-04T03:18:02;16.40;99.90
12752;DHT22;6440;44.616;2.032;2022-09-04T03:20:29;16.40;99.90
12752;DHT22;6440;44.616;2.032;2022-09-04T03:22:59;16.40;99.90
12752;DHT22;6440;44.616;2.032;2022-09-04T03:25:45;16.40;99.90
12752;DHT22;6440;44.616;2.032;2022-09-04T03:28:17;16.40;99.90
12752;DHT22;6440;44.616;2.032;2022-09-04T03:30:40;16.40;99.90
12752;DHT22;6440;44.616;2.032;2022-09-04T03:33:11;16.30;99.90
12752;DHT22;6440;44.616;2.032;2022-09-04T03:36:02;16.30;99.90
12752;DHT22;6440;44.616;2.032;2022-09-04T03:39:05;16.30;99.90
12752;DHT22;6440;44.616;2.032;2022-09-04T03:41:23;16.30;99.90
12752;DHT22;6440;44.616;2.032;2022-09-04T03:43:59;16.30;99.90
12752;DHT22;6440;44.616;2.032;2022-09-04T03:47:19;16.30;99.90
12752;DHT22;6440;44.616;2.032;2022-09-04T03:49:38;16.30;99.90
12752;DHT22;6440;44.616;2.032;2022-09-04T03:52:55;16.30;99.90
12752;DHT22;6440;44.616;2.032;2022-09-04T03:55:12;16.30;99.90
12752;DHT22;6440;44.616;2.032;2022-09-04T03:58:04;16.30;99.90
12752;DHT22;6440;44.616;2.032;2022-09-04T04:00:47;16.30;99.90
12752;DHT22;6440;44.616;2.032;2022-09-04T04:03:31;16.30;99.90
12752;DHT22;6440;44.616;2.032;2022-09-04T04:06:22;16.30;99.90
12752;DHT22;6440;44.616;2.032;2022-09-04T04:09:12;16.30;99.90
12752;DHT22;6440;44.616;2.032;2022-09-04T04:12:10;16.20;99.90
12752;DHT22;6440;44.616;2.032;2022-09-04T04:14:50;16.20;99.90
12752;DHT22;6440;44.616;2.032;2022-09-04T04:26:20;16.20;99.90
12752;DHT22;6440;44.616;2.032;2022-09-04T04:29:18;16.20;99.90
12752;DHT22;6440;44.616;2.032;2022-09-04T04:31:59;16.20;99.90
12752;DHT22;6440;44.616;2.032;2022-09-04T04:34:53;16.20;99.90
12752;DHT22;6440;44.616;2.032;2022-09-04T04:37:36;16.20;99.90
12752;DHT22;6440;44.616;2.032;2022-09-04T04:40:07;16.20;99.90
12752;DHT22;6440;44.616;2.032;2022-09-04T04:42:57;16.20;99.90
12752;DHT22;6440;44.616;2.032;2022-09-04T04:45:43;16.20;99.90
12752;DHT22;6440;44.616;2.032;2022-09-04T04:48:22;16.20;99.90
12752;DHT22;6440;44.616;2.032;2022-09-04T04:51:05;16.30;99.90
12752;DHT22;6440;44.616;2.032;2022-09-04T04:53:54;16.30;99.90
12752;DHT22;6440;44.616;2.032;2022-09-04T04:56:28;16.20;99.90
12752;DHT22;6440;44.616;2.032;2022-09-04T04:59:06;16.30;99.90
12752;DHT22;6440;44.616;2.032;2022-09-04T05:01:41;16.30;99.90
12752;DHT22;6440;44.616;2.032;2022-09-04T05:04:51;16.30;99.90
12752;DHT22;6440;44.616;2.032;2022-09-04T05:07:29;16.30;99.90
12752;DHT22;6440;44.616;2.032;2022-09-04T05:10:22;16.40;99.90
12752;DHT22;6440;44.616;2.032;2022-09-04T05:13:15;16.40;99.90
12752;DHT22;6440;44.616;2.032;2022-09-04T05:16:07;16.40;99.90
12752;DHT22;6440;44.616;2.032;2022-09-04T05:21:33;16.40;99.90
12752;DHT22;6440;44.616;2.032;2022-09-04T05:24:13;16.40;99.90
12752;DHT22;6440;44.616;2.032;2022-09-04T05:26:42;16.40;99.90
12752;DHT22;6440;44.616;2.032;2022-09-04T05:29:27;16.50;99.90
12752;DHT22;6440;44.616;2.032;2022-09-04T05:31:55;16.50;99.90
12752;DHT22;6440;44.616;2.032;2022-09-04T05:34:51;16.60;99.90
12752;DHT22;6440;44.616;2.032;2022-09-04T05:37:15;16.60;99.90
12752;DHT22;6440;44.616;2.032;2022-09-04T05:40:01;16.60;99.90
12752;DHT22;6440;44.616;2.032;2022-09-04T05:42:53;16.70;99.90
12752;DHT22;6440;44.616;2.032;2022-09-04T05:45:23;16.80;99.90
12752;DHT22;6440;44.616;2.032;2022-09-04T05:48:06;16.80;99.90
12752;DHT22;6440;44.616;2.032;2022-09-04T05:50:48;16.80;99.90
12752;DHT22;6440;44.616;2.032;2022-09-04T05:53:36;16.90;99.90
12752;DHT22;6440;44.616;2.032;2022-09-04T05:56:20;16.90;99.90
12752;DHT22;6440;44.616;2.032;2022-09-04T06:07:12;17.20;99.90
12752;DHT22;6440;44.616;2.032;2022-09-04T06:09:49;17.30;99.90
12752;DHT22;6440;44.616;2.032;2022-09-04T06:12:34;17.50;99.90
12752;DHT22;6440;44.616;2.032;2022-09-04T06:18:07;17.80;99.90
12752;DHT22;6440;44.616;2.032;2022-09-04T06:20:54;18.00;99.90
12752;DHT22;6440;44.616;2.032;2022-09-04T06:24:34;18.20;99.90
12752;DHT22;6440;44.616;2.032;2022-09-04T06:26:41;18.40;99.90
12752;DHT22;6440;44.616;2.032;2022-09-04T06:29:28;18.60;99.90
12752;DHT22;6440;44.616;2.032;2022-09-04T06:32:03;18.90;99.90
12752;DHT22;6440;44.616;2.032;2022-09-04T06:34:42;19.10;99.90
12752;DHT22;6440;44.616;2.032;2022-09-04T06:37:30;19.30;99.90
12752;DHT22;6440;44.616;2.032;2022-09-04T06:43:07;19.60;99.90
12752;DHT22;6440;44.616;2.032;2022-09-04T06:48:48;19.80;99.90
12752;DHT22;6440;44.616;2.032;2022-09-04T06:51:21;19.90;99.90
12752;DHT22;6440;44.616;2.032;2022-09-04T06:56:47;20.00;99.90
12752;DHT22;6440;44.616;2.032;2022-09-04T06:59:22;20.00;99.90
12752;DHT22;6440;44.616;2.032;2022-09-04T07:02:34;20.10;99.90
12752;DHT22;6440;44.616;2.032;2022-09-04T07:04:50;20.10;99.90
12752;DHT22;6440;44.616;2.032;2022-09-04T07:07:37;20.10;99.90
12752;DHT22;6440;44.616;2.032;2022-09-04T07:10:26;20.20;99.90
12752;DHT22;6440;44.616;2.032;2022-09-04T07:19:12;20.30;99.90
12752;DHT22;6440;44.616;2.032;2022-09-04T07:21:47;20.50;99.90
12752;DHT22;6440;44.616;2.032;2022-09-04T07:24:38;20.60;99.90
12752;DHT22;6440;44.616;2.032;2022-09-04T07:27:22;20.80;99.90
12752;DHT22;6440;44.616;2.032;2022-09-04T07:30:07;20.90;99.90
12752;DHT22;6440;44.616;2.032;2022-09-04T07:32:37;21.00;99.90
12752;DHT22;6440;44.616;2.032;2022-09-04T07:35:15;21.10;99.90
12752;DHT22;6440;44.616;2.032;2022-09-04T07:37:53;21.20;99.90
12752;DHT22;6440;44.616;2.032;2022-09-04T07:40:22;21.40;99.90
12752;DHT22;6440;44.616;2.032;2022-09-04T07:42:54;21.60;99.90
12752;DHT22;6440;44.616;2.032;2022-09-04T07:45:27;21.80;99.90
12752;DHT22;6440;44.616;2.032;2022-09-04T07:48:04;22.20;99.90
12752;DHT22;6440;44.616;2.032;2022-09-04T07:50:39;22.40;99.90
12752;DHT22;6440;44.616;2.032;2022-09-04T07:53:16;22.60;99.90
12752;DHT22;6440;44.616;2.032;2022-09-04T07:55:44;23.00;99.90
12752;DHT22;6440;44.616;2.032;2022-09-04T07:58:21;23.70;98.80
12752;DHT22;6440;44.616;2.032;2022-09-04T08:00:58;24.40;96.30
12752;DHT22;6440;44.616;2.032;2022-09-04T08:03:59;25.30;93.60
12752;DHT22;6440;44.616;2.032;2022-09-04T08:06:35;26.30;90.90
12752;DHT22;6440;44.616;2.032;2022-09-04T08:09:14;27.30;88.50
12752;DHT22;6440;44.616;2.032;2022-09-04T08:11:44;27.80;86.70
12752;DHT22;6440;44.616;2.032;2022-09-04T08:14:40;28.30;85.20
12752;DHT22;6440;44.616;2.032;2022-09-04T08:17:20;28.50;84.70
12752;DHT22;6440;44.616;2.032;2022-09-04T08:20:09;29.50;83.20
12752;DHT22;6440;44.616;2.032;2022-09-04T08:23:32;30.50;80.40
12752;DHT22;6440;44.616;2.032;2022-09-04T08:25:50;31.20;78.00
12752;DHT22;6440;44.616;2.032;2022-09-04T08:28:40;31.40;77.40
12752;DHT22;6440;44.616;2.032;2022-09-04T08:31:37;31.70;77.00
12752;DHT22;6440;44.616;2.032;2022-09-04T08:37:27;32.10;76.00
12752;DHT22;6440;44.616;2.032;2022-09-04T08:45:31;32.70;73.90
12752;DHT22;6440;44.616;2.032;2022-09-04T08:48:21;32.80;73.70
12752;DHT22;6440;44.616;2.032;2022-09-04T08:51:14;32.30;74.50
12752;DHT22;6440;44.616;2.032;2022-09-04T08:53:59;32.40;74.40
12752;DHT22;6440;44.616;2.032;2022-09-04T08:59:33;31.80;75.20
12752;DHT22;6440;44.616;2.032;2022-09-04T09:05:02;32.90;73.80
12752;DHT22;6440;44.616;2.032;2022-09-04T09:07:43;33.60;72.20
12752;DHT22;6440;44.616;2.032;2022-09-04T09:16:19;34.10;70.10
12752;DHT22;6440;44.616;2.032;2022-09-04T09:22:09;34.00;70.90
12752;DHT22;6440;44.616;2.032;2022-09-04T09:25:19;34.40;69.70
12752;DHT22;6440;44.616;2.032;2022-09-04T09:29:18;33.90;70.80
12752;DHT22;6440;44.616;2.032;2022-09-04T09:41:05;34.50;69.30
12752;DHT22;6440;44.616;2.032;2022-09-04T09:43:01;34.80;69.00
12752;DHT22;6440;44.616;2.032;2022-09-04T09:45:38;35.40;68.10
12752;DHT22;6440;44.616;2.032;2022-09-04T09:48:48;35.80;67.10
12752;DHT22;6440;44.616;2.032;2022-09-04T09:51:07;35.70;67.10
12752;DHT22;6440;44.616;2.032;2022-09-04T09:54:02;35.30;67.90
12752;DHT22;6440;44.616;2.032;2022-09-04T10:02:44;34.80;68.50
12752;DHT22;6440;44.616;2.032;2022-09-04T10:08:27;34.80;68.80
12752;DHT22;6440;44.616;2.032;2022-09-04T10:12:15;34.60;69.10
12752;DHT22;6440;44.616;2.032;2022-09-04T10:14:07;35.00;68.30
12752;DHT22;6440;44.616;2.032;2022-09-04T10:17:02;35.00;68.70
12752;DHT22;6440;44.616;2.032;2022-09-04T10:19:52;35.40;68.10
12752;DHT22;6440;44.616;2.032;2022-09-04T10:22:41;35.70;67.30
12752;DHT22;6440;44.616;2.032;2022-09-04T10:25:18;35.40;67.40
12752;DHT22;6440;44.616;2.032;2022-09-04T10:30:51;35.00;68.90
12752;DHT22;6440;44.616;2.032;2022-09-04T10:33:21;35.20;68.00
12752;DHT22;6440;44.616;2.032;2022-09-04T10:36:08;35.50;67.40
12752;DHT22;6440;44.616;2.032;2022-09-04T10:41:53;35.20;67.50
12752;DHT22;6440;44.616;2.032;2022-09-04T10:44:40;34.80;68.70
12752;DHT22;6440;44.616;2.032;2022-09-04T10:47:18;34.70;68.40
12752;DHT22;6440;44.616;2.032;2022-09-04T10:49:59;34.50;69.00
12752;DHT22;6440;44.616;2.032;2022-09-04T10:52:53;34.80;68.50
12752;DHT22;6440;44.616;2.032;2022-09-04T10:55:46;34.80;68.30
12752;DHT22;6440;44.616;2.032;2022-09-04T10:58:36;34.60;68.00
12752;DHT22;6440;44.616;2.032;2022-09-04T11:01:11;34.40;68.00
12752;DHT22;6440;44.616;2.032;2022-09-04T11:04:18;34.30;69.00
12752;DHT22;6440;44.616;2.032;2022-09-04T11:07:10;34.30;68.60
12752;DHT22;6440;44.616;2.032;2022-09-04T11:10:17;34.00;68.60
12752;DHT22;6440;44.616;2.032;2022-09-04T11:12:47;33.80;68.80
12752;DHT22;6440;44.616;2.032;2022-09-04T11:15:42;33.90;68.40
12752;DHT22;6440;44.616;2.032;2022-09-04T11:24:15;34.30;67.70
12752;DHT22;6440;44.616;2.032;2022-09-04T11:26:53;33.80;68.00
12752;DHT22;6440;44.616;2.032;2022-09-04T11:32:35;34.30;68.10
12752;DHT22;6440;44.616;2.032;2022-09-04T11:35:13;34.40;66.30
12752;DHT22;6440;44.616;2.032;2022-09-04T11:37:47;34.60;67.10
12752;DHT22;6440;44.616;2.032;2022-09-04T11:46:06;35.40;64.60
12752;DHT22;6440;44.616;2.032;2022-09-04T11:48:58;35.60;64.40
12752;DHT22;6440;44.616;2.032;2022-09-04T11:54:11;34.80;65.30
12752;DHT22;6440;44.616;2.032;2022-09-04T11:59:49;34.90;65.40
12752;DHT22;6440;44.616;2.032;2022-09-04T12:02:35;35.20;64.30
12752;DHT22;6440;44.616;2.032;2022-09-04T12:05:53;35.00;64.10
12752;DHT22;6440;44.616;2.032;2022-09-04T12:08:44;34.90;63.70
12752;DHT22;6440;44.616;2.032;2022-09-04T12:11:23;34.80;64.50
12752;DHT22;6440;44.616;2.032;2022-09-04T12:20:08;34.10;65.30
12752;DHT22;6440;44.616;2.032;2022-09-04T12:22:51;33.70;65.90
12752;DHT22;6440;44.616;2.032;2022-09-04T12:25:42;33.80;66.30
12752;DHT22;6440;44.616;2.032;2022-09-04T12:28:40;33.60;65.80
12752;DHT22;6440;44.616;2.032;2022-09-04T12:31:32;33.50;66.50
12752;DHT22;6440;44.616;2.032;2022-09-04T12:37:14;32.80;65.40
12752;DHT22;6440;44.616;2.032;2022-09-04T12:39:59;32.80;66.00
12752;DHT22;6440;44.616;2.032;2022-09-04T12:42:43;33.20;66.20
12752;DHT22;6440;44.616;2.032;2022-09-04T12:45:19;33.30;65.60
12752;DHT22;6440;44.616;2.032;2022-09-04T12:48:05;33.00;66.10
12752;DHT22;6440;44.616;2.032;2022-09-04T12:50:33;32.60;66.20
12752;DHT22;6440;44.616;2.032;2022-09-04T12:57:21;32.10;67.80
12752;DHT22;6440;44.616;2.032;2022-09-04T12:59:10;32.30;66.90
12752;DHT22;6440;44.616;2.032;2022-09-04T13:04:43;32.40;66.20
12752;DHT22;6440;44.616;2.032;2022-09-04T13:11:11;32.20;66.60
12752;DHT22;6440;44.616;2.032;2022-09-04T13:16:04;32.40;65.90
12752;DHT22;6440;44.616;2.032;2022-09-04T13:18:46;32.40;66.80
12752;DHT22;6440;44.616;2.032;2022-09-04T13:24:48;32.40;67.20
12752;DHT22;6440;44.616;2.032;2022-09-04T13:30:14;32.40;65.30
12752;DHT22;6440;44.616;2.032;2022-09-04T13:32:51;32.50;65.90
12752;DHT22;6440;44.616;2.032;2022-09-04T13:41:40;32.80;63.40
12752;DHT22;6440;44.616;2.032;2022-09-04T13:44:29;33.00;61.60
12752;DHT22;6440;44.616;2.032;2022-09-04T13:47:04;32.90;62.40
12752;DHT22;6440;44.616;2.032;2022-09-04T13:49:36;32.80;62.60
12752;DHT22;6440;44.616;2.032;2022-09-04T13:52:05;32.60;63.00
12752;DHT22;6440;44.616;2.032;2022-09-04T13:54:35;32.60;62.90
12752;DHT22;6440;44.616;2.032;2022-09-04T13:57:12;32.60;62.00
12752;DHT22;6440;44.616;2.032;2022-09-04T13:59:37;32.60;61.70
12752;DHT22;6440;44.616;2.032;2022-09-04T14:02:07;32.70;62.10
12752;DHT22;6440;44.616;2.032;2022-09-04T14:04:34;32.60;62.00
12752;DHT22;6440;44.616;2.032;2022-09-04T14:07:02;32.50;62.10
12752;DHT22;6440;44.616;2.032;2022-09-04T14:09:28;32.40;62.50
12752;DHT22;6440;44.616;2.032;2022-09-04T14:12:05;32.40;62.30
12752;DHT22;6440;44.616;2.032;2022-09-04T14:14:42;32.20;63.00
12752;DHT22;6440;44.616;2.032;2022-09-04T14:17:21;32.10;63.20
12752;DHT22;6440;44.616;2.032;2022-09-04T14:20:00;31.90;63.50
12752;DHT22;6440;44.616;2.032;2022-09-04T14:22:33;31.90;62.80
12752;DHT22;6440;44.616;2.032;2022-09-04T14:27:50;32.00;63.00
12752;DHT22;6440;44.616;2.032;2022-09-04T14:30:18;32.20;62.30
12752;DHT22;6440;44.616;2.032;2022-09-04T14:35:50;32.50;59.90
12752;DHT22;6440;44.616;2.032;2022-09-04T14:41:16;32.60;60.20
12752;DHT22;6440;44.616;2.032;2022-09-04T14:43:48;32.40;61.30
12752;DHT22;6440;44.616;2.032;2022-09-04T14:46:22;32.20;61.80
12752;DHT22;6440;44.616;2.032;2022-09-04T14:48:57;32.00;62.40
12752;DHT22;6440;44.616;2.032;2022-09-04T14:51:38;32.10;62.50
12752;DHT22;6440;44.616;2.032;2022-09-04T14:54:04;32.20;62.60
12752;DHT22;6440;44.616;2.032;2022-09-04T14:56:49;32.30;62.90
12752;DHT22;6440;44.616;2.032;2022-09-04T14:59:23;32.30;62.90
12752;DHT22;6440;44.616;2.032;2022-09-04T15:05:00;32.50;63.20
12752;DHT22;6440;44.616;2.032;2022-09-04T15:07:50;32.60;63.10
12752;DHT22;6440;44.616;2.032;2022-09-04T15:10:23;32.70;63.20
12752;DHT22;6440;44.616;2.032;2022-09-04T15:12:54;32.70;63.10
12752;DHT22;6440;44.616;2.032;2022-09-04T15:15:36;32.70;63.30
12752;DHT22;6440;44.616;2.032;2022-09-04T15:18:11;32.70;62.60
12752;DHT22;6440;44.616;2.032;2022-09-04T15:20:38;32.60;61.30
12752;DHT22;6440;44.616;2.032;2022-09-04T15:23:15;32.60;60.20
12752;DHT22;6440;44.616;2.032;2022-09-04T15:25:51;32.60;59.50
12752;DHT22;6440;44.616;2.032;2022-09-04T15:28:50;32.60;59.70
12752;DHT22;6440;44.616;2.032;2022-09-04T15:31:30;32.60;59.30
12752;DHT22;6440;44.616;2.032;2022-09-04T15:34:00;32.60;58.90
12752;DHT22;6440;44.616;2.032;2022-09-04T15:36:27;32.70;58.70
12752;DHT22;6440;44.616;2.032;2022-09-04T15:38:57;32.70;58.10
12752;DHT22;6440;44.616;2.032;2022-09-04T15:41:42;32.60;58.50
12752;DHT22;6440;44.616;2.032;2022-09-04T15:44:30;32.60;58.00
12752;DHT22;6440;44.616;2.032;2022-09-04T15:48:17;32.30;58.40
12752;DHT22;6440;44.616;2.032;2022-09-04T15:50:02;32.10;58.40
12752;DHT22;6440;44.616;2.032;2022-09-04T15:52:37;31.90;58.50
12752;DHT22;6440;44.616;2.032;2022-09-04T15:55:18;31.90;57.90
12752;DHT22;6440;44.616;2.032;2022-09-04T15:57:48;31.90;57.90
12752;DHT22;6440;44.616;2.032;2022-09-04T16:00:14;32.00;57.40
12752;DHT22;6440;44.616;2.032;2022-09-04T16:03:17;32.00;56.90
12752;DHT22;6440;44.616;2.032;2022-09-04T16:05:45;32.10;57.60
12752;DHT22;6440;44.616;2.032;2022-09-04T16:08:28;32.10;56.50
12752;DHT22;6440;44.616;2.032;2022-09-04T16:11:00;32.10;57.00
12752;DHT22;6440;44.616;2.032;2022-09-04T16:13:36;32.10;56.60
12752;DHT22;6440;44.616;2.032;2022-09-04T16:16:08;31.90;56.50
12752;DHT22;6440;44.616;2.032;2022-09-04T16:18:54;31.80;57.10
12752;DHT22;6440;44.616;2.032;2022-09-04T16:21:24;31.60;56.70
12752;DHT22;6440;44.616;2.032;2022-09-04T16:23:52;31.50;57.90
12752;DHT22;6440;44.616;2.032;2022-09-04T16:26:23;31.40;58.10
12752;DHT22;6440;44.616;2.032;2022-09-04T16:28:51;31.30;58.90
12752;DHT22;6440;44.616;2.032;2022-09-04T16:31:23;31.20;59.50
12752;DHT22;6440;44.616;2.032;2022-09-04T16:33:51;31.10;60.40
12752;DHT22;6440;44.616;2.032;2022-09-04T16:36:21;31.00;61.30
12752;DHT22;6440;44.616;2.032;2022-09-04T16:39:10;30.90;61.90
12752;DHT22;6440;44.616;2.032;2022-09-04T16:41:42;30.80;62.40
12752;DHT22;6440;44.616;2.032;2022-09-04T16:44:18;30.70;63.00
12752;DHT22;6440;44.616;2.032;2022-09-04T16:46:58;30.60;62.90
12752;DHT22;6440;44.616;2.032;2022-09-04T16:49:39;30.60;62.90
12752;DHT22;6440;44.616;2.032;2022-09-04T16:55:06;30.50;63.90
12752;DHT22;6440;44.616;2.032;2022-09-04T16:57:38;30.40;64.10
12752;DHT22;6440;44.616;2.032;2022-09-04T17:00:07;30.30;64.50
12752;DHT22;6440;44.616;2.032;2022-09-04T17:02:44;30.30;65.20
12752;DHT22;6440;44.616;2.032;2022-09-04T17:05:23;30.30;65.80
12752;DHT22;6440;44.616;2.032;2022-09-04T17:08:02;30.30;66.50
12752;DHT22;6440;44.616;2.032;2022-09-04T17:13:27;30.50;66.50
12752;DHT22;6440;44.616;2.032;2022-09-04T17:16:14;30.50;66.60
12752;DHT22;6440;44.616;2.032;2022-09-04T17:18:45;30.50;66.90
12752;DHT22;6440;44.616;2.032;2022-09-04T17:21:33;30.40;67.00
12752;DHT22;6440;44.616;2.032;2022-09-04T17:24:11;30.40;67.80
12752;DHT22;6440;44.616;2.032;2022-09-04T17:26:37;30.30;68.40
12752;DHT22;6440;44.616;2.032;2022-09-04T17:29:08;30.20;68.90
12752;DHT22;6440;44.616;2.032;2022-09-04T17:31:40;30.10;69.50
12752;DHT22;6440;44.616;2.032;2022-09-04T17:34:14;30.00;69.70
12752;DHT22;6440;44.616;2.032;2022-09-04T17:36:44;30.00;70.00
12752;DHT22;6440;44.616;2.032;2022-09-04T17:39:16;29.90;70.30
12752;DHT22;6440;44.616;2.032;2022-09-04T17:41:48;29.80;70.20
12752;DHT22;6440;44.616;2.032;2022-09-04T17:44:22;29.80;70.40
12752;DHT22;6440;44.616;2.032;2022-09-04T17:47:05;29.70;70.40
12752;DHT22;6440;44.616;2.032;2022-09-04T17:49:34;29.70;70.70
12752;DHT22;6440;44.616;2.032;2022-09-04T17:52:02;29.60;71.40
12752;DHT22;6440;44.616;2.032;2022-09-04T17:54:30;29.50;72.10
12752;DHT22;6440;44.616;2.032;2022-09-04T17:57:02;29.40;72.50
12752;DHT22;6440;44.616;2.032;2022-09-04T17:59:57;29.30;72.80
12752;DHT22;6440;44.616;2.032;2022-09-04T18:02:26;29.20;73.20
12752;DHT22;6440;44.616;2.032;2022-09-04T18:04:53;29.10;73.70
12752;DHT22;6440;44.616;2.032;2022-09-04T18:07:25;29.00;74.00
12752;DHT22;6440;44.616;2.032;2022-09-04T18:10:08;29.00;74.30
12752;DHT22;6440;44.616;2.032;2022-09-04T18:12:42;28.90;74.80
12752;DHT22;6440;44.616;2.032;2022-09-04T18:15:14;28.80;75.20
12752;DHT22;6440;44.616;2.032;2022-09-04T18:17:45;28.70;75.40
12752;DHT22;6440;44.616;2.032;2022-09-04T18:20:29;28.60;75.80
12752;DHT22;6440;44.616;2.032;2022-09-04T18:22:58;28.50;76.10
12752;DHT22;6440;44.616;2.032;2022-09-04T18:25:39;28.40;76.50
12752;DHT22;6440;44.616;2.032;2022-09-04T18:28:14;28.30;77.10
12752;DHT22;6440;44.616;2.032;2022-09-04T18:30:52;28.30;77.40
12752;DHT22;6440;44.616;2.032;2022-09-04T18:33:20;28.20;77.80
12752;DHT22;6440;44.616;2.032;2022-09-04T18:35:53;28.10;78.30
12752;DHT22;6440;44.616;2.032;2022-09-04T18:40:55;27.90;79.40
12752;DHT22;6440;44.616;2.032;2022-09-04T18:43:35;27.90;79.70
12752;DHT22;6440;44.616;2.032;2022-09-04T18:46:03;27.80;80.10
12752;DHT22;6440;44.616;2.032;2022-09-04T18:48:31;27.70;80.40
12752;DHT22;6440;44.616;2.032;2022-09-04T18:51:19;27.70;80.70
12752;DHT22;6440;44.616;2.032;2022-09-04T18:54:02;27.60;80.80
12752;DHT22;6440;44.616;2.032;2022-09-04T18:56:34;27.50;81.10
12752;DHT22;6440;44.616;2.032;2022-09-04T18:59:16;27.50;81.80
12752;DHT22;6440;44.616;2.032;2022-09-04T19:04:38;27.30;82.80
12752;DHT22;6440;44.616;2.032;2022-09-04T19:13:06;27.10;84.20
12752;DHT22;6440;44.616;2.032;2022-09-04T19:15:47;27.00;84.30
12752;DHT22;6440;44.616;2.032;2022-09-04T19:18:59;27.00;84.50
12752;DHT22;6440;44.616;2.032;2022-09-04T19:21:45;26.90;84.60
12752;DHT22;6440;44.616;2.032;2022-09-04T19:24:31;26.80;84.70
12752;DHT22;6440;44.616;2.032;2022-09-04T19:27:11;26.80;85.00
12752;DHT22;6440;44.616;2.032;2022-09-04T19:29:45;26.70;85.50
12752;DHT22;6440;44.616;2.032;2022-09-04T19:32:22;26.60;85.80
12752;DHT22;6440;44.616;2.032;2022-09-04T19:34:51;26.50;85.80
12752;DHT22;6440;44.616;2.032;2022-09-04T19:37:26;26.50;86.00
12752;DHT22;6440;44.616;2.032;2022-09-04T19:39:56;26.50;86.20
12752;DHT22;6440;44.616;2.032;2022-09-04T19:42:30;26.40;86.30
12752;DHT22;6440;44.616;2.032;2022-09-04T19:44:59;26.40;86.50
12752;DHT22;6440;44.616;2.032;2022-09-04T19:47:32;26.40;86.50
12752;DHT22;6440;44.616;2.032;2022-09-04T19:50:09;26.30;86.80
12752;DHT22;6440;44.616;2.032;2022-09-04T19:52:49;26.30;86.80
12752;DHT22;6440;44.616;2.032;2022-09-04T19:55:18;26.20;86.90
12752;DHT22;6440;44.616;2.032;2022-09-04T19:57:47;26.20;87.10
12752;DHT22;6440;44.616;2.032;2022-09-04T20:00:20;26.20;87.40
12752;DHT22;6440;44.616;2.032;2022-09-04T20:02:51;26.20;87.90
12752;DHT22;6440;44.616;2.032;2022-09-04T20:05:24;26.10;88.00
12752;DHT22;6440;44.616;2.032;2022-09-04T20:08:14;26.00;88.30
12752;DHT22;6440;44.616;2.032;2022-09-04T20:10:46;25.80;88.70
12752;DHT22;6440;44.616;2.032;2022-09-04T20:13:19;25.70;89.50
12752;DHT22;6440;44.616;2.032;2022-09-04T20:15:53;25.50;89.90
12752;DHT22;6440;44.616;2.032;2022-09-04T20:18:23;25.40;90.10
12752;DHT22;6440;44.616;2.032;2022-09-04T20:20:55;25.30;90.30
12752;DHT22;6440;44.616;2.032;2022-09-04T20:23:26;25.30;90.40